Al Ain, UAE

3:29 PM GST on July 29, 2015 (GMT +0400)
Al Ain International | | Change Station
CLOSE
Current Station
Airport
Location: Al Ain,
Elevation: 869 ft
Nearby Weather Stations

Elev 869 ft 24.26 °N, 55.61 °E | Updated 29 minutes ago

Clear
Clear
113 °F
Feels Like 114 °F
N
13
Wind Variable Wind from West

Today
High -- | Low -- °F
--% Chance of Precip.
Yesterday
High -- | Low -- °F
Precip. -- in
5:44 AM 7:03 PM
Waxing Gibbous, 95% visible
Pressure 29.47 in
Visibility -9999.0 miles
Clouds
Heat Index 114 °F
Dew Point 59 °F
Humidity 17%
Rainfall 0.00 in
Snow Depth Not available.
UV Not available.
Pollen Not available.
Air Quality Not available.
Flu Activity Not available.
METAR OMAL 291100Z 26011KT CAVOK 45/15 Q0998 A2949 BECMG 32013KT

More Conditions Fewer Conditions

Pressure 29.47 in
Visibility -9999.0 miles
Clouds
Heat Index 114 °F
Dew Point 59 °F
Humidity 17%
Rainfall 0.00 in
Snow Depth Not available.
UV Not available.
Pollen Not available.
Air Quality Not available.
Flu Activity Not available.
METAR OMAL 291100Z 26011KT CAVOK 45/15 Q0998 A2949 BECMG 32013KT

More Conditions Fewer Conditions

10-Day Weather Forecast

×

Almanac

Astronomy

Jul. 29, 2015 Rise Set
Actual Time
Civil Twilight
Nautical Twilight
Astronomical Twilight
Moon
Length of Visible Light
Length of Day
Tomorrow will be .
, % of the Moon is Illuminated

Today's Extremes

Country Highs Country Lows

Community

WunderPhotos

Upload Photos

1,842,075 photos uploaded!

WunderBlogs® & News

Nearby

Air Quality

  Air Quality AQ Index Pollutant
Not available.

Snow Depth

Station Depth Elevation

Earthquake Activity

City Distance Mag. Time & Date
Minimum magnitude displayed is 2.5.

Coastal Water Temperatures

Place Temperature

Stations

Nearby Weather Stations

Station Location Temp. Windchill Dew Point Humidity Wind Precip. Elev Updated Type